NCAR-RAP Real-Time Weather Data

Output produced by METARs form (16 August 2018  19:24 UTC)
found at http://weather.rap.ucar.edu/surface/
 
RJCC 161900Z 34019KT 9999 -SHRA FEW006 SCT008 BKN010 13/12 Q1003 RMK 1ST006 4ST008 6ST010 A2964
RJCC 161830Z 34019KT 9999 -SHRA FEW006 BKN008 BKN050 13/12 Q1003 RMK 2ST006 5ST008 7CU050 A2964
RJCC 161800Z 34018KT 9999 -SHRA FEW006 SCT008 BKN050 12/12 Q1003 RMK 2ST006 4ST008 7CU050 A2963
RJCC 161730Z 34015KT 9999 -SHRA FEW006 SCT008 BKN040 12/12 Q1003 RMK 2ST006 4ST008 7CU040 A2963
RJCC 161700Z 34016KT 9999 -SHRA FEW006 SCT008 BKN040 12/12 Q1003 RMK 1ST006 4ST008 7CU040 A2962
RJCC 161630Z 34016KT 5000 -SHRA BR FEW005 SCT008 BKN040 13/12 Q1003 RMK 1ST005 4ST008 7CU040 A2962
RJCC 161600Z 34017KT 5000 -SHRA BR FEW010 BKN040 BKN070 13/12 Q1003 RMK 2ST010 6CU040 7AC070 A2962
RJCC 161530Z 34017KT 5000 SHRA BR FEW010 BKN040 BKN070 13/12 Q1002 RMK 2ST010 5CU040 6AC070 A2961
RJCC 161500Z 34017KT 5000 SHRA BR FEW010 BKN040 BKN070 13/12 Q1002 RMK 1ST010 5CU040 6AC070 A2961
RJCC 161430Z 33013KT 5000 -SHRA BR FEW010 BKN040 BKN070 14/12 Q1002 RMK 1ST010 5CU040 6AC070 A2961 P/RR
RJCC 161400Z 35016KT 5000 SHRA BR FEW010 BKN040 BKN070 13/12 Q1001 RMK 1ST010 5CU040 6AC070 A2957
RJCC 161330Z 34015KT 5000 SHRA BR FEW008 SCT010 BKN040 14/13 Q1001 RMK 1ST008 3ST010 6CU040 A2957
RJCC 161300Z 33014KT 9999 -SHRA FEW010 SCT040 BKN070 14/12 Q1001 RMK 1ST010 4CU040 7AC070 A2956
RJCC 161230Z 34015KT 9999 -SHRA FEW010 SCT030 BKN060 14/13 Q1000 RMK 1ST010 3CU030 7CU060 A2954
RJCC 161200Z 33016KT 9999 -SHRA FEW010 SCT030 BKN060 14/13 Q0999 RMK 1ST010 3CU030 7CU060 A2952
RJCC 161130Z 33012KT 9999 -SHRA FEW010 SCT030 BKN060 15/13 Q1000 RMK 1ST010 3CU030 7CU060 A2953
RJCC 161100Z 32015KT 9999 -SHRA FEW003 SCT010 BKN030 15/13 Q1000 RMK 1ST003 3ST010 5CU030 A2953 MOD TURB OBS AT 1030Z CAPLY TO IBURI BTN FL200 AND FL170 B735
RJCC 161030Z 33013KT 9999 FEW003 SCT010 BKN030 15/14 Q0999 RMK 1ST003 3ST010 5CU030 A2951
RJCC 161016Z 32012KT 9999 FEW003 SCT010 BKN030 15/14 Q0999 RMK 1ST003 4ST010 5CU030 A2951 MOD TURB OBS AT 0957Z 10NM S NAVER BTN 16000FT AND 13000FT IN DES A320 P/RR
RJCC 161000Z 26014KT 9999 FEW002 SCT006 BKN012 15/14 Q1000 RMK 1ST002 4ST006 5ST012 A2953
RJCC 160948Z 04010KT 9999 FEW002 SCT010 BKN150 15/14 Q0997 RMK 1ST002 4ST010 6AC150 A2945
RJCC 160930Z 31013KT 9999 -SHRA FEW002 SCT006 BKN040 15/14 Q0999 RMK 1ST002 4ST006 5CU040 A2950
RJCC 160909Z 01006KT 9999 -SHRA FEW003 SCT004 BKN040 16/15 Q0998 RMK 1ST003 4ST004 5CU040 A2949
RJCC 160900Z 33012KT 8000 -SHRA FEW002 SCT004 BKN008 16/15 Q0998 RMK 1ST002 4ST004 6ST008 A2948 P/FR
RJCC 160830Z 02008KT 350V060 6000 -SHRA FEW002 BKN004 BKN010 15/15 Q0999 RMK 2ST002 6ST004 7ST010 A2952
RJCC 160808Z 35010KT 7000 -SHRA FEW002 BKN004 BKN030 16/15 Q1000 RMK 2ST002 6ST004 7CU030 A2955
RJCC 160800Z 35010KT 5000 SHRA BR FEW002 BKN004 BKN030 16/15 Q1000 RMK 1ST002 6ST004 7CU030 A2955
RJCC 160743Z 34010KT 3500 SHRA BR FEW002 BKN004 BKN030 16/15 Q1001 RMK 1ST002 5ST004 7CU030 A2956
RJCC 160730Z 34010KT 3500 SHRA BR FEW002 SCT004 BKN030 16/16 Q1001 RMK 1ST002 3ST004 7CU030 A2957
RJCC 160717Z 33010KT 3200 SHRA BR FEW002 SCT004 BKN030 16/16 Q1001 RMK 1ST002 4ST004 7CU030 A2957
RJCC 160700Z 34010KT 3000 R01L/P2000N R01R/P2000N SHRA BR FEW002 BKN004 BKN025 16/16 Q1001 RMK 1ST002 6ST004 7CU025 A2957
RJCC 160639Z 36011KT 3000 R01L/P2000N R01R/P2000N SHRA BR FEW003 BKN004 BKN025 17/16 Q1000 RMK 2ST003 5ST004 7CU025 A2955
RJCC 160630Z 34010KT 3000 R01L/P2000N R01R/P2000N SHRA BR FEW003 SCT004 BKN025 17/16 Q1000
RJCC 160600Z 36007KT 3000 SHRA BR FEW003 BKN030 17/16 Q1001 RMK 2ST003 7CU030 A2956
RJCC 160539Z 36006KT 2500 R01L/P2000N R01R/P2000N +SHRA BR FEW002 SCT005 BKN030 17/16 Q1000 RMK 1ST002 3ST005 7CU030 A2955
RJCC 160530Z 35006KT 2400 R01L/P2000N R01R/P2000N SHRA BR FEW002 SCT005 BKN025 17/16 Q1000
RJCC 160500Z 01004KT 3500 SHRA BR FEW002 SCT005 BKN025 17/17 Q1001 RMK 1ST002 4ST005 7CU025 A2956
RJCC 160443Z 05004KT 020V110 3200 R19R/2000N R19L/1500VP2000N SHRA BR FEW002 BKN005 BKN025 17/17 Q1001 RMK 1ST002 5ST005 7CU025 A2956
RJCC 160430Z 04003KT 010V080 3500 R19R/1400VP2000D R19L/2000N SHRA BR FEW002 SCT005 BKN025 17/17 Q1001
RJCC 160416Z 07004KT 030V110 3500 R19R/1800U R19L/1800U SHRA BR FEW002 SCT007 BKN030 17/17 Q1001 RMK 1ST002 4ST007 7CU030 A2958
RJCC 160408Z 10004KT 3100 R19R/1800D R19L/1400VP2000D +SHRA BR FEW002 SCT007 BKN025 18/17 Q1001 RMK 1ST002 4ST007 7CU025 A2958
RJCC 160400Z 11005KT 3100 R19R/2000N R19L/2000N SHRA BR FEW002 SCT007 BKN025 17/17 Q1001 RMK 1ST002 4ST007 7CU025 A2959
RJCC 160344Z 12006KT 3200 R19R/1200VP2000U R19L/1000VP2000U -SHRA BR FEW002 SCT005 BKN007 18/17 Q1002 RMK 1ST002 4ST005 6ST007 A2960
RJCC 160335Z 12005KT 2500 R19R/1200VP2000D R19L/1000VP2000D SHRA BR FEW002 BKN004 BKN007 18/17 Q1002 RMK 1ST002 5ST004 6ST007 A2960
RJCC 160334Z 12005KT 080V150 3000 R19R/1600VP2000D R19L/1600VP2000D SHRA BR FEW002 BKN004 BKN007 18/17 Q1002 RMK 1ST002 5ST004 6ST007 A2960
RJCC 160330Z 13005KT 3500 -SHRA BR FEW002 BKN004 BKN007 18/17 Q1002 RMK 1ST002 5ST004 6ST007 A2960
RJCC 160300Z 12004KT 070V140 3500 -SHRA BR FEW002 BKN004 BKN007 18/17 Q1003 RMK 1ST002 5ST004 6ST007 A2962
RJCC 160242Z 12005KT 3200 -SHRA BR FEW002 BKN005 BKN007 18/17 Q1003 RMK 1ST002 5ST005 6ST007 A2962
RJCC 160230Z 12004KT 090V150 3200 -SHRA BR FEW002 SCT005 BKN014 18/17 Q1003 RMK 1ST002 4ST005 6ST014 A2963
RJCC 160210Z 11004KT 080V150 3100 -SHRA BR FEW002 BKN005 BKN014 18/17 Q1003 RMK 1ST002 5ST005 6ST014 A2964
RJCC 160200Z 11005KT 4900 -SHRA BR FEW002 BKN005 BKN014 18/17 Q1003 RMK 1ST002 5ST005 6ST014 A2964
RJCC 160130Z 10007KT 5000 -SHRA BR FEW002 SCT005 BKN014 18/18 Q1003 RMK 1ST002 4ST005 6ST014 A2964
RJCC 160124Z 10006KT 3500 -SHRA BR FEW002 BKN005 BKN014 18/17 Q1004 RMK 1ST002 5ST005 6ST014 A2965
RJCC 160100Z 11006KT 2500 -SHRA BR FEW002 BKN005 BKN014 18/17 Q1004 RMK 1ST002 5ST005 6ST014 A2966
RJCC 160030Z 10006KT 2500 -SHRA BR FEW002 BKN005 BKN018 18/17 Q1004 RMK 1ST002 5ST005 6ST018 A2967
RJCC 160008Z 12004KT 2300 R19R/P2000N R19L/P2000N -SHRA BR FEW002 BKN005 BKN012 18/17 Q1005 RMK 1ST002 5ST005 6ST012 A2968
RJCC 160000Z 11004KT 090V150 2500 R19R/P2000N R19L/P2000N -SHRA BR FEW002 BKN005 BKN012 18/17 Q1005
RJCC 152339Z 12003KT 3100 -SHRA BR FEW003 BKN005 BKN015 18/17 Q1005 RMK 1ST003 5ST005 6ST015 A2969
RJCC 152330Z 12004KT 4500 -SHRA BR FEW003 BKN006 BKN015 18/17 Q1005 RMK 1ST003 5ST006 6ST015 A2969
RJCC 152300Z 12004KT 4000 -SHRA BR FEW002 SCT003 BKN005 18/17 Q1005 RMK 1ST002 3ST003 6ST005 A2969
RJCC 152247Z 11004KT 080V140 4000 -SHRA BR FEW002 BKN005 BKN015 18/17 Q1005 RMK 1ST002 5ST005 6ST015 A2969
RJCC 152230Z 11004KT 070V140 3200 R19R/P2000N R19L/2000N -SHRA BR FEW002 SCT003 BKN015 18/17 Q1005 RMK 1ST002 3ST003 6ST015 A2969
RJCC 152213Z 13003KT 110V170 3100 R19R/P2000N R19L/P2000N -SHRA BR FEW002 SCT003 BKN010 18/17 Q1005 RMK 1ST002 3ST003 6ST010 A2970
RJCC 152200Z 12003KT 080V150 3500 -SHRA BR FEW002 SCT008 BKN010 18/17 Q1006 RMK 1ST002 3ST008 6ST010 A2971
RJCC 152143Z 09003KT 4000 -SHRA BR FEW002 SCT003 BKN008 17/17 Q1006 RMK 1ST002 3ST003 6ST008 A2971
RJCC 152130Z 09004KT 5000 -SHRA BR FEW002 SCT003 BKN007 18/17 Q1006 RMK 1ST002 3ST003 6ST007 A2972 9999NE-E
RJCC 152120Z 08003KT 3200 -SHRA BR FEW001 SCT003 BKN010 17/17 Q1006 RMK 1ST001 3ST003 6ST010 A2972
RJCC 152110Z 08003KT 2400 R19R/1400VP2000N R19L/1200VP2000U -SHRA BR FEW001 SCT003 BKN010 17/17 Q1006 RMK 1ST001 3ST003 6ST010 A2972
RJCC 152100Z 09004KT 2000 R19R/1100VP2000D R19L/1200VP2000D SHRA BR FEW001 SCT003 BKN010 17/17 Q1006 RMK 1ST001 4ST003 6ST010 A2972
RJCC 152030Z 02003KT 340V050 2300 R19R/1900D R19L/1800D -SHRA BR FEW001 BKN003 BKN010 17/17 Q1006
RJCC 152010Z 34003KT 3100 -SHRA BR FEW001 BKN003 BKN015 17/17 Q1007 RMK 1ST001 5ST003 7ST015 A2974
RJCC 152000Z 34003KT 4000 -SHRA BR FEW001 SCT003 BKN025 17/17 Q1007 RMK 1ST001 3ST003 7CU025 A2974
RJCC 151930Z VRB01KT 4000 -SHRA BR FEW001 SCT003 BKN025 17/17 Q1007 RMK 1ST001 3ST003 7CU025 A2974
RJCC 151900Z VRB02KT 4000 -SHRA BR FEW001 SCT003 BKN025 17/17 Q1007 RMK 1ST001 3ST003 7CU025 A2974
RJCC 151830Z VRB02KT 4000 -SHRA BR FEW001 SCT003 BKN015 17/17 Q1007 RMK 1ST001 3ST003 7ST015 A2974
RJCC 151800Z 04004KT 350V080 2500 -SHRA BR FEW001 SCT003 BKN008 18/17 Q1007 RMK 1ST001 3ST003 5ST008 A2975
RJCC 151730Z 34003KT 2000 -SHRA BR FEW001 SCT003 BKN008 18/17 Q1008 RMK 1ST001 3ST003 7ST008 A2977
RJCC 151700Z 32003KT 3500 -SHRA BR FEW005 SCT012 BKN016 18/17 Q1008 RMK 1ST005 3ST012 7ST016 A2977
RJCC 151630Z VRB01KT 9999 -SHRA FEW005 BKN017 18/18 Q1008 RMK 1ST005 7ST017 A2978
RJCC 151600Z VRB02KT 9999 -SHRA FEW005 BKN017 18/17 Q1008 RMK 1ST005 7ST017 A2978
RJCC 151530Z 18003KT 150V210 9999 -SHRA FEW004 BKN015 18/18 Q1009 RMK 1ST004 7ST015 A2979
RJCC 151500Z 13003KT 6000 -SHRA FEW004 BKN015 18/18 Q1009 RMK 1ST004 7ST015 A2980
RJCC 151430Z 14004KT 110V180 5000 -SHRA BR FEW004 BKN015 18/18 Q1009 RMK 1ST004 7ST015 A2981 P/FR
RJCC 151400Z 15003KT 4500 -SHRA BR FEW004 BKN040 18/18 Q1010 RMK 1ST004 7CU040 A2984
RJCC 151346Z 15005KT 4900 -SHRA BR FEW002 BKN018 18/18 Q1010 RMK 1ST002 7ST018 A2984
RJCC 151330Z 13005KT 5000 -SHRA BR FEW002 BKN018 19/18 Q1010 RMK 1ST002 7ST018 A2984
RJCC 151314Z 12005KT 3500 -SHRA BR FEW001 SCT003 BKN015 19/18 Q1010 RMK 1ST001 4ST003 7ST015 A2984
RJCC 151300Z 15007KT 110V180 3500 -SHRA BR FEW001 BKN003 BKN007 19/18 Q1010 RMK 1ST001 6ST003 7ST007 A2984
RJCC 151236Z 17006KT 4000 -SHRA BR FEW002 BKN004 BKN008 19/18 Q1010 RMK 1ST002 5ST004 6ST008 A2985
RJCC 151230Z 18006KT 4000 -SHRA BR FEW002 BKN005 BKN012 19/18 Q1011 RMK 1ST002 5ST005 6ST012 A2985
RJCC 151225Z 19007KT 4000 -SHRA BR FEW002 BKN005 BKN020 19/18 Q1011 RMK 1ST002 5ST005 6ST020 A2986
RJCC 151211Z 18009KT 4900 -SHRA BR FEW002 SCT005 BKN020 19/18 Q1011 RMK 1ST002 3ST005 6ST020 A2985
RJCC 151200Z 17009KT 8000 -SHRA FEW002 SCT005 BKN020 19/18 Q1011 RMK 1ST002 4ST005 6ST020 A2985
RJCC 151130Z 17008KT 9999 FEW002 SCT005 BKN020 19/18 Q1010 RMK 1ST002 3ST005 6ST020 A2985
RJCC 151100Z 18006KT 8000 FEW002 SCT005 BKN018 19/19 Q1010 RMK 1ST002 3ST005 6ST018 A2984
RJCC 151030Z 21005KT 6000 -SHRA FEW003 SCT007 BKN010 19/19 Q1010 RMK 1ST003 3ST007 7ST010 A2985
RJCC 151000Z 24006KT 6000 -SHRA FEW003 SCT007 BKN010 20/19 Q1011 RMK 1ST003 3ST007 7ST010 A2986
RJCC 150930Z 23007KT 6000 -SHRA FEW001 SCT007 BKN020 20/19 Q1010 RMK 1ST001 3ST007 7ST020 A2985
RJCC 150915Z 22009KT 5000 -SHRA BR FEW001 SCT007 BKN020 20/19 Q1010 RMK 1ST001 3ST007 7ST020 A2984
RJCC 150900Z 20011KT 4500 -SHRA BR FEW001 SCT004 BKN010 20/19 Q1010 RMK 1ST001 4ST004 7ST010 A2984
RJCC 150837Z 18011KT 3000 -SHRA BR FEW001 SCT004 BKN010 20/19 Q1010 RMK 1ST001 4ST004 7ST010 A2983
RJCC 150830Z 18011KT 3000 -SHRA BR FEW001 BKN004 BKN007 20/19 Q1010 RMK 1ST001 5ST004 7ST007 A2983
RJCC 150800Z 19009KT 3000 -SHRA BR FEW001 BKN003 BKN005 20/19 Q1010 RMK 2ST001 5ST003 7ST005 A2983
RJCC 150739Z 20007KT 2500 SHRA BR FEW001 BKN003 BKN005 20/19 Q1010 RMK 2ST001 5ST003 7ST005 A2983
RJCC 150734Z 19010KT 3100 -SHRA BR FEW001 BKN003 BKN005 20/19 Q1010 RMK 2ST001 5ST003 7ST005 A2983
RJCC 150730Z 18011KT 4900 -SHRA BR FEW001 BKN003 BKN005 20/19 Q1010 RMK 2ST001 5ST003 7ST005 A2983
RJCC 150700Z 17013KT 5000 -SHRA BR FEW001 SCT003 BKN005 20/19 Q1009 RMK 2ST001 4ST003 7ST005 A2982
RJCC 150630Z 16012KT 4000 -SHRA BR FEW001 SCT003 BKN005 20/19 Q1010 RMK 2ST001 4ST003 7ST005 A2983
RJCC 150600Z 16012KT 2500 -SHRA BR FEW001 BKN003 BKN005 20/19 Q1010 RMK 2ST001 5ST003 7ST005 A2983
RJCC 150530Z 16011KT 3000 -SHRA BR FEW001 SCT003 BKN005 20/19 Q1010 RMK 1ST001 4ST003 7ST005 A2985
RJCC 150515Z 16011KT 3000 -SHRA BR FEW001 SCT003 BKN005 20/19 Q1010 RMK 1ST001 4ST003 7ST005 A2984
RJCC 150500Z 17012KT 4900 -SHRA BR FEW001 BKN005 BKN007 20/19 Q1011 RMK 1ST001 5ST005 7ST007 A2985
RJCC 150430Z 15011KT 5000 -SHRA BR FEW001 SCT002 BKN005 20/19 Q1010 RMK 1ST001 3ST002 7ST005 A2983
RJCC 150400Z 16011KT 3000 -SHRA BR FEW001 SCT002 BKN004 20/20 Q1010 RMK 1ST001 3ST002 7ST004 A2985
RJCC 150330Z 16010KT 3000 -SHRA BR FEW001 SCT002 BKN004 20/20 Q1011 RMK 1ST001 3ST002 7ST004 A2987
RJCC 150300Z 16009KT 3100 -SHRA BR SCT002 BKN004 BKN008 21/20 Q1011 RMK 3ST002 6ST004 7ST008 A2987
RJCC 150230Z 15007KT 4900 -SHRA BR FEW002 BKN005 BKN008 21/20 Q1011 RMK 2ST002 6ST005 7ST008 A2987
RJCC 150200Z 14007KT 9999 -SHRA FEW002 BKN005 BKN008 21/21 Q1011 RMK 2ST002 6ST005 7ST008 A2988
RJCC 150130Z 14005KT 5000 -SHRA BR SCT002 BKN005 BKN008 21/20 Q1011 RMK 3ST002 6ST005 7ST008 A2988
RJCC 150107Z 15003KT 110V180 3500 -SHRA BR FEW002 BKN005 BKN012 21/20 Q1012 RMK 1ST002 5ST005 7ST012 A2989
RJCC 150100Z VRB01KT 3000 R19R/P2000N R19L/P2000N SHRA BR FEW002 BKN004 BKN012 21/20 Q1012 RMK 1ST002 5ST004 7ST012 A2989
RJCC 150030Z 28003KT 250V330 2500 R19R/P2000N R19L/P2000N SHRA BR FEW002 BKN004 BKN008 21/20 Q1012 RMK 2ST002 5ST004 7ST008 A2989
RJCC 150022Z 25003KT 190V290 2000 R19R/1400VP2000U R19L/2000N SHRA BR FEW002 BKN004 BKN008 21/20 Q1012 RMK 2ST002 6ST004 7ST008 A2989
RJCC 150014Z 24003KT 190V270 2000 R19R/2000N R19L/P2000N +SHRA BR FEW002 BKN004 BKN008 21/20 Q1012 RMK 2ST002 6ST004 7ST008 A2989 RI++
RJCC 150000Z VRB01KT 2500 R19R/2000N R19L/1900N SHRA BR FEW002 BKN004 BKN009 21/20 Q1011 RMK 2ST002 6ST004 7ST009 A2987
RJCC 142350Z VRB02KT 3100 -SHRA BR FEW002 BKN004 21/20 Q1011 RMK 2ST002 7ST004 A2987
RJCC 142347Z VRB02KT 4900 -SHRA BR FEW002 BKN004 21/20 Q1011 RMK 2ST002 7ST004 A2987
RJCC 142330Z 16006KT 6000 -SHRA FEW002 BKN004 BKN015 21/20 Q1011 RMK 2ST002 5ST004 7ST015 A2986
RJCC 142310Z 16007KT 6000 -SHRA FEW002 BKN005 BKN015 21/20 Q1011 RMK 2ST002 5ST005 7ST015 A2986
RJCC 142300Z 15007KT 6000 -SHRA FEW002 SCT005 BKN018 21/20 Q1011 RMK 2ST002 3ST005 7ST018 A2987
RJCC 142230Z 16004KT 6000 -SHRA FEW002 SCT010 BKN018 20/20 Q1011 RMK 2ST002 3ST010 7ST018 A2988
RJCC 142200Z 17005KT 5000 -SHRA BR FEW002 SCT008 BKN018 20/20 Q1011 RMK 1ST002 3ST008 7ST018 A2988
RJCC 142130Z 17002KT 5000 -SHRA BR FEW002 SCT005 BKN008 20/20 Q1011 RMK 1ST002 3ST005 6ST008 A2988
RJCC 142112Z 14002KT 5000 -SHRA BR FEW002 SCT005 BKN007 20/20 Q1011 RMK 1ST002 4ST005 7ST007 A2987
RJCC 142100Z VRB01KT 5000 -SHRA BR FEW002 BKN005 20/20 Q1011 RMK 1ST002 7ST005 A2987
RJCC 142030Z 17002KT 5000 -SHRA BR FEW002 BKN005 20/20 Q1011 RMK 1ST002 7ST005 A2988
RJCC 142000Z 06001KT 5000 -SHRA BR FEW001 BKN005 20/19 Q1011 RMK 1ST001 7ST005 A2987 2000W-NW
RJCC 141930Z VRB01KT 4000 R19R/P2000N R19L/P2000N -SHRA BR FEW001 SCT002 BKN003 20/19 Q1011
RJCC 141900Z 09003KT 2500 BR FEW001 SCT002 BKN003 20/19 Q1011 RMK 1ST001 3ST002 7ST003 A2986
RJCC 141830Z 11002KT 2500 -SHRA BR FEW001 SCT002 BKN003 20/19 Q1011 RMK 1ST001 4ST002 7ST003 A2986
RJCC 141800Z VRB02KT 3000 -SHRA BR FEW002 BKN003 BKN004 20/20 Q1011 RMK 2ST002 5ST003 7ST004 A2986
RJCC 141730Z 11002KT 2500 -SHRA BR FEW002 SCT003 BKN004 20/20 Q1011 RMK 2ST002 4ST003 7ST004 A2986
RJCC 141700Z 15002KT 3000 -SHRA BR FEW002 BKN003 20/19 Q1011 RMK 2ST002 7ST003 A2986
RJCC 141630Z 00000KT 4000 -SHRA BR FEW002 BKN003 BKN005 20/19 Q1011 RMK 2ST002 5ST003 7ST005 A2986
RJCC 141600Z VRB02KT 4000 -SHRA BR FEW002 BKN005 BKN007 20/19 Q1011 RMK 1ST002 5ST005 7ST007 A2986
RJCC 141530Z 16001KT 6000 -SHRA FEW002 BKN007 BKN010 20/19 Q1011 RMK 1ST002 5ST007 7ST010 A2987
RJCC 141500Z 20002KT 6000 -SHRA FEW002 SCT008 BKN010 20/19 Q1011 RMK 1ST002 3ST008 7ST010 A2987
RJCC 141430Z 22003KT 6000 -SHRA FEW002 SCT005 BKN010 20/19 Q1011 RMK 1ST002 3ST005 7ST010 A2987
RJCC 141400Z VRB01KT 6000 -SHRA FEW002 SCT006 BKN010 20/19 Q1011 RMK 1ST002 3ST006 7ST010 A2987
RJCC 141330Z 00000KT 5000 -SHRA BR FEW002 SCT005 BKN007 20/19 Q1011 RMK 1ST002 4ST005 6ST007 A2987
RJCC 141310Z 10002KT 5000 -SHRA BR FEW003 BKN005 BKN010 20/19 Q1011 RMK 1ST003 5ST005 7ST010 A2987
RJCC 141300Z VRB02KT 6000 -SHRA FEW003 SCT005 BKN013 20/19 Q1011 RMK 1ST003 4ST005 7ST013 A2988
RJCC 141230Z 21002KT 6000 -SHRA FEW003 SCT010 BKN015 20/19 Q1012 RMK 1ST003 3ST010 7ST015 A2988
RJCC 141200Z VRB02KT 6000 -SHRA FEW003 BKN015 20/19 Q1012 RMK 1ST003 7ST015 A2989
RJCC 141130Z 18003KT 140V220 6000 -SHRA FEW003 SCT007 BKN015 20/19 Q1012 RMK 1ST003 3ST007 7ST015 A2989
RJCC 141100Z VRB02KT 6000 -SHRA FEW003 BKN010 BKN015 20/19 Q1012 RMK 1ST003 5ST010 7ST015 A2988
RJCC 141030Z 22003KT 6000 -SHRA FEW002 BKN010 20/19 Q1012 RMK 1ST002 7ST010 A2989
RJCC 141000Z 21004KT 5000 -SHRA BR FEW002 BKN012 20/20 Q1011 RMK 1ST002 7ST012 A2988
RJCC 140930Z 14004KT 5000 -SHRA BR FEW002 SCT004 BKN015 20/20 Q1011 RMK 1ST002 3ST004 7ST015 A2987
RJCC 140908Z 18004KT 6000 -SHRA FEW002 SCT008 BKN020 20/20 Q1011 RMK 1ST002 3ST008 7CU020 A2987
RJCC 140900Z 17004KT 5000 -SHRA BR FEW002 SCT005 BKN008 20/20 Q1011 RMK 1ST002 3ST005 5ST008 A2987
RJCC 140843Z 16004KT 6000 R19R/2000N R19L/P2000N -SHRA FEW002 BKN005 BKN010 20/20 Q1011 RMK 1ST002 5ST005 6ST010 A2987
RJCC 140830Z 15005KT 8000 -SHRA FEW002 SCT006 BKN010 21/20 Q1011 RMK 1ST002 3ST006 5ST010 A2987
RJCC 140800Z 15005KT 9999 -SHRA FEW002 BKN020 21/20 Q1011 RMK 1ST002 7CU020 A2986
RJCC 140730Z 16005KT 9999 -SHRA FEW002 BKN020 BKN040 21/20 Q1011 RMK 1ST002 5CU020 7CU040 A2987